createdAt,value
2022-08-10T00:01:03.376Z,1.70
2022-08-10T00:03:32.983Z,1.50
2022-08-10T00:06:01.327Z,1.90
2022-08-10T00:08:29.562Z,1.77
2022-08-10T00:10:58.971Z,2.08
2022-08-10T00:13:28.876Z,1.20
2022-08-10T00:15:57.052Z,1.60
2022-08-10T00:18:34.905Z,1.50
2022-08-10T00:21:05.758Z,2.00
2022-08-10T00:23:34.279Z,1.70
2022-08-10T00:26:02.773Z,1.48
2022-08-10T00:28:32.561Z,1.50
2022-08-10T00:31:01.198Z,1.55
2022-08-10T00:33:29.366Z,1.90
2022-08-10T00:36:02.243Z,1.58
2022-08-10T00:38:30.392Z,1.60
2022-08-10T00:40:58.549Z,1.27
2022-08-10T00:43:26.951Z,1.73
2022-08-10T00:45:58.889Z,1.50
2022-08-10T00:48:29.752Z,1.60
2022-08-10T00:50:59.853Z,1.45
2022-08-10T00:53:28.789Z,1.65
2022-08-10T00:57:07.869Z,2.00
2022-08-10T00:58:47.481Z,1.50
2022-08-10T01:02:10.097Z,1.70
2022-08-10T01:04:54.387Z,1.75
2022-08-10T01:07:11.720Z,2.13
2022-08-10T01:09:55.558Z,1.75
2022-08-10T01:12:38.780Z,1.58
2022-08-10T01:15:23.652Z,1.67
2022-08-10T01:17:59.333Z,1.58
2022-08-10T01:20:35.079Z,1.80
2022-08-10T01:23:34.744Z,1.38
2022-08-10T01:26:31.613Z,1.52
2022-08-10T01:29:14.937Z,1.50
2022-08-10T01:31:50.767Z,1.55
2022-08-10T01:34:23.644Z,1.90
2022-08-10T01:36:57.031Z,1.70
2022-08-10T01:39:27.426Z,1.80
2022-08-10T01:41:58.358Z,1.35
2022-08-10T01:44:31.858Z,1.80
2022-08-10T01:47:22.092Z,1.35
2022-08-10T01:49:55.028Z,1.48
2022-08-10T01:52:26.831Z,1.80
2022-08-10T01:54:56.587Z,1.70
2022-08-10T01:57:27.026Z,1.80
2022-08-10T02:00:02.086Z,1.90
2022-08-10T02:02:35.087Z,2.03
2022-08-10T02:05:06.158Z,2.08
2022-08-10T02:07:37.700Z,2.20
2022-08-10T02:10:12.121Z,2.00
2022-08-10T02:12:42.585Z,1.58
2022-08-10T02:15:14.662Z,2.03
2022-08-10T02:17:57.081Z,1.42
2022-08-10T02:20:35.090Z,2.55
2022-08-10T02:23:06.562Z,2.20
2022-08-10T02:25:40.865Z,2.10
2022-08-10T02:28:27.528Z,1.95
2022-08-10T02:31:06.589Z,2.08
2022-08-10T02:33:38.470Z,1.67
2022-08-10T02:36:10.839Z,2.08
2022-08-10T02:38:58.124Z,1.90
2022-08-10T02:45:16.177Z,1.80
2022-08-10T02:45:27.646Z,2.35
2022-08-10T02:47:25.423Z,2.38
2022-08-10T02:50:09.221Z,1.73
2022-08-10T02:52:45.551Z,1.50
2022-08-10T02:55:27.000Z,2.10
2022-08-10T02:58:12.937Z,1.88
2022-08-10T03:00:49.841Z,2.20
2022-08-10T03:03:22.619Z,1.80
2022-08-10T03:05:56.726Z,2.00
2022-08-10T03:08:29.821Z,2.05
2022-08-10T03:11:01.912Z,2.15
2022-08-10T03:13:32.436Z,2.38
2022-08-10T03:16:02.613Z,1.88
2022-08-10T03:21:01.257Z,1.92
2022-08-10T03:23:30.356Z,2.10
2022-08-10T03:26:00.446Z,1.80
2022-08-10T03:30:59.735Z,1.95
2022-08-10T03:36:42.879Z,1.52
2022-08-10T03:38:51.971Z,1.35
2022-08-10T03:41:29.745Z,1.30
2022-08-10T03:44:05.923Z,1.45
2022-08-10T03:46:38.601Z,1.17
2022-08-10T03:49:08.480Z,1.30
2022-08-10T03:51:38.461Z,1.40
2022-08-10T03:54:08.873Z,1.58
2022-08-10T03:56:39.860Z,1.40
2022-08-10T03:59:12.318Z,1.65
2022-08-10T04:02:46.746Z,1.20
2022-08-10T04:04:29.667Z,1.20
2022-08-10T04:07:00.082Z,1.35
2022-08-10T04:09:54.092Z,1.08
2022-08-10T04:12:19.453Z,0.98
2022-08-10T04:14:51.407Z,1.25
2022-08-10T04:18:03.177Z,1.98
2022-08-10T04:20:19.677Z,1.45
2022-08-10T04:22:52.485Z,1.38
2022-08-10T04:25:23.956Z,1.50
2022-08-10T04:27:53.644Z,1.00
2022-08-10T04:30:21.974Z,1.55
2022-08-10T04:32:57.170Z,1.45
2022-08-10T04:35:27.444Z,1.50
2022-08-10T04:40:30.165Z,1.13
2022-08-10T04:43:10.429Z,1.08
2022-08-10T04:45:50.287Z,0.98
2022-08-10T04:48:42.057Z,1.17
2022-08-10T04:51:10.961Z,1.23
2022-08-10T04:54:04.308Z,1.50
2022-08-10T04:56:35.977Z,1.10
2022-08-10T04:59:05.268Z,1.50
2022-08-10T05:02:12.283Z,1.17
2022-08-10T05:04:38.100Z,1.40
2022-08-10T05:07:08.960Z,0.80
2022-08-10T05:10:04.108Z,1.10
2022-08-10T05:12:27.886Z,1.45
2022-08-10T05:14:56.577Z,1.20
2022-08-10T05:17:24.953Z,1.25
2022-08-10T05:20:04.771Z,0.82
2022-08-10T05:22:38.118Z,1.35
2022-08-10T05:25:08.898Z,1.02
2022-08-10T05:27:39.110Z,1.20
2022-08-10T05:32:56.714Z,1.15
2022-08-10T05:35:26.361Z,1.10
2022-08-10T05:38:12.166Z,1.45
2022-08-10T05:40:46.782Z,1.73
2022-08-10T05:43:19.251Z,1.33
2022-08-10T05:46:17.341Z,1.40
2022-08-10T05:48:57.116Z,1.50
2022-08-10T05:51:31.177Z,1.10
2022-08-10T05:54:04.067Z,1.08
2022-08-10T05:56:56.346Z,0.80
2022-08-10T06:00:31.134Z,1.02
2022-08-10T06:02:35.051Z,1.40
2022-08-10T06:05:11.589Z,1.43
2022-08-10T06:07:42.589Z,1.52
2022-08-10T06:10:28.601Z,1.30
2022-08-10T06:13:30.379Z,1.20
2022-08-10T06:16:06.688Z,1.40
2022-08-10T06:18:35.288Z,1.30
2022-08-10T06:21:03.628Z,1.20
2022-08-10T06:23:33.781Z,1.55
2022-08-10T06:26:10.219Z,1.30
2022-08-10T06:28:43.827Z,1.40
2022-08-10T06:34:22.098Z,1.13
2022-08-10T06:36:51.386Z,1.13
2022-08-10T06:39:36.316Z,1.00
2022-08-10T06:42:18.308Z,1.30
2022-08-10T06:45:00.064Z,1.05
2022-08-10T06:47:35.183Z,1.00
2022-08-10T06:50:09.523Z,1.40
2022-08-10T06:52:39.475Z,1.48
2022-08-10T06:55:12.291Z,1.42
2022-08-10T06:58:08.777Z,1.02
2022-08-10T07:00:42.711Z,1.50
2022-08-10T07:03:44.038Z,1.20
2022-08-10T07:06:46.802Z,1.02
2022-08-10T07:09:17.877Z,1.55
2022-08-10T07:11:50.005Z,1.25
2022-08-10T07:14:20.269Z,1.02
2022-08-10T07:19:33.339Z,1.25
2022-08-10T07:22:02.910Z,0.90
2022-08-10T07:24:33.034Z,1.35
2022-08-10T07:29:53.695Z,0.82
2022-08-10T07:32:23.136Z,1.30
2022-08-10T07:34:56.621Z,1.27
2022-08-10T07:37:26.527Z,1.00
2022-08-10T07:40:02.189Z,0.98
2022-08-10T07:42:35.435Z,1.27
2022-08-10T07:45:05.042Z,0.93
2022-08-10T07:47:52.700Z,1.05
2022-08-10T07:50:41.920Z,1.35
2022-08-10T07:53:26.161Z,1.08
2022-08-10T07:56:13.361Z,1.15
2022-08-10T07:58:52.557Z,1.13
2022-08-10T08:01:50.596Z,0.95
2022-08-10T08:04:20.987Z,1.23
2022-08-10T08:06:52.980Z,1.00
2022-08-10T08:09:23.241Z,0.90
2022-08-10T08:14:22.046Z,1.00
2022-08-10T08:16:53.601Z,0.85
2022-08-10T08:19:28.964Z,0.93
2022-08-10T08:24:09.033Z,0.68
2022-08-10T08:27:28.587Z,0.70
2022-08-10T08:29:57.460Z,0.75
2022-08-10T08:32:28.077Z,0.63
2022-08-10T08:35:00.011Z,0.98
2022-08-10T08:38:30.432Z,0.60
2022-08-10T08:40:26.461Z,0.70
2022-08-10T08:43:21.445Z,0.70
2022-08-10T08:46:11.069Z,0.70
2022-08-10T08:49:09.790Z,0.40
2022-08-10T08:52:09.729Z,0.35
2022-08-10T08:56:04.115Z,0.47
2022-08-10T08:58:08.481Z,0.20
2022-08-10T09:00:45.053Z,0.43
2022-08-10T09:03:49.342Z,0.40
2022-08-10T09:06:44.670Z,0.70
2022-08-10T09:09:42.305Z,0.28
2022-08-10T09:12:34.105Z,0.50
2022-08-10T09:15:07.354Z,0.43
2022-08-10T09:17:56.508Z,0.20
2022-08-10T09:20:34.909Z,0.32
2022-08-10T09:23:13.348Z,0.50
2022-08-10T09:25:50.266Z,0.68
2022-08-10T09:28:26.498Z,0.90
2022-08-10T09:36:21.930Z,0.43
2022-08-10T09:37:01.502Z,0.30
2022-08-10T09:40:56.326Z,0.30
2022-08-10T09:42:42.129Z,0.35
2022-08-10T09:45:18.072Z,0.40
2022-08-10T09:48:01.013Z,0.50
2022-08-10T09:51:27.984Z,0.60
2022-08-10T09:53:45.361Z,0.38
2022-08-10T09:56:28.714Z,0.43
2022-08-10T09:59:26.622Z,0.40
2022-08-10T10:02:10.478Z,0.63
2022-08-10T10:04:46.646Z,0.28
2022-08-10T10:07:34.449Z,0.63
2022-08-10T10:10:10.224Z,0.55
2022-08-10T10:12:50.579Z,0.60
2022-08-10T10:15:33.006Z,0.60
2022-08-10T10:18:31.062Z,0.50
2022-08-10T10:21:06.703Z,0.75
2022-08-10T10:24:22.242Z,0.75
2022-08-10T10:26:49.711Z,0.70
2022-08-10T10:29:56.700Z,0.50
2022-08-10T10:32:36.968Z,0.63
2022-08-10T10:35:17.038Z,0.60
2022-08-10T10:38:00.684Z,0.60
2022-08-10T10:40:46.892Z,0.65
2022-08-10T10:43:41.944Z,0.43
2022-08-10T10:46:24.298Z,0.60
2022-08-10T10:49:12.786Z,0.50
2022-08-10T10:51:52.874Z,0.47
2022-08-10T10:57:13.979Z,0.50
2022-08-10T10:59:56.519Z,0.17
2022-08-10T11:03:28.259Z,0.60
2022-08-10T11:06:09.821Z,0.82
2022-08-10T11:09:04.385Z,0.45
2022-08-10T11:12:00.916Z,0.50
2022-08-10T11:14:46.272Z,0.65
2022-08-10T11:17:22.585Z,0.68
2022-08-10T11:20:03.192Z,0.50
2022-08-10T11:22:37.828Z,0.65
2022-08-10T11:25:33.723Z,0.52
2022-08-10T11:28:09.048Z,0.60
2022-08-10T11:30:46.717Z,0.65
2022-08-10T11:33:32.875Z,0.50
2022-08-10T11:36:27.267Z,0.40
2022-08-10T11:39:18.726Z,0.50
2022-08-10T11:42:10.243Z,0.60
2022-08-10T11:44:48.414Z,0.32
2022-08-10T11:51:20.429Z,0.55
2022-08-10T11:53:54.942Z,0.63
2022-08-10T11:57:02.441Z,0.50
2022-08-10T11:59:57.968Z,0.60
2022-08-10T12:02:48.271Z,0.60
2022-08-10T12:05:24.146Z,0.52
2022-08-10T12:10:07.371Z,0.77
2022-08-10T12:11:05.491Z,0.50
2022-08-10T12:13:58.407Z,0.52
2022-08-10T12:16:38.265Z,0.50
2022-08-10T12:19:15.059Z,0.50
2022-08-10T12:21:48.149Z,0.85
2022-08-10T12:24:51.574Z,0.43
2022-08-10T12:27:33.998Z,0.25
2022-08-10T12:30:48.743Z,0.50
2022-08-10T12:48:35.550Z,0.20
2022-08-10T12:51:08.112Z,0.30
2022-08-10T12:53:54.310Z,0.63
2022-08-10T12:56:26.627Z,0.40
2022-08-10T12:59:16.863Z,0.30
2022-08-10T13:05:13.763Z,0.55
2022-08-10T13:08:28.254Z,0.45
2022-08-10T13:11:01.997Z,0.55
2022-08-10T13:14:25.112Z,0.55
2022-08-10T13:20:17.418Z,0.20
2022-08-10T13:22:49.143Z,0.20
2022-08-10T13:25:57.021Z,0.30
2022-08-10T13:28:40.026Z,0.40
2022-08-10T13:31:16.587Z,0.30
2022-08-10T13:34:39.954Z,0.57
2022-08-10T13:40:03.695Z,0.52
2022-08-10T13:42:37.011Z,0.77
2022-08-10T13:45:32.007Z,0.63
2022-08-10T13:48:11.178Z,0.47
2022-08-10T13:50:41.295Z,0.68
2022-08-10T13:53:15.306Z,0.30
2022-08-10T13:55:56.843Z,0.40
2022-08-10T13:58:30.201Z,0.45
2022-08-10T14:01:01.919Z,0.40
2022-08-10T14:03:37.570Z,0.57
2022-08-10T14:06:07.979Z,0.38
2022-08-10T14:08:38.108Z,0.47
2022-08-10T14:11:12.858Z,0.80
2022-08-10T14:13:46.642Z,0.50
2022-08-10T14:16:20.348Z,0.50
2022-08-10T14:19:02.962Z,0.55
2022-08-10T14:21:31.774Z,0.50
2022-08-10T14:24:00.106Z,0.45
2022-08-10T14:26:32.133Z,0.70
2022-08-10T14:29:20.119Z,0.50
2022-08-10T14:32:01.085Z,0.50
2022-08-10T14:36:15.491Z,0.47
2022-08-10T14:37:43.488Z,0.60
2022-08-10T14:40:32.628Z,0.65
2022-08-10T14:43:03.026Z,0.40
2022-08-10T14:45:35.669Z,0.70
2022-08-10T14:48:11.456Z,0.32
2022-08-10T14:50:54.877Z,0.70
2022-08-10T14:53:43.547Z,0.70
2022-08-10T14:56:25.460Z,0.50
2022-08-10T14:59:19.265Z,0.75
2022-08-10T15:02:00.853Z,0.65
2022-08-10T15:04:39.557Z,0.50
2022-08-10T15:07:12.954Z,0.90
2022-08-10T15:10:00.534Z,0.25
2022-08-10T15:12:34.196Z,0.50
2022-08-10T15:15:05.137Z,0.60
2022-08-10T15:18:13.583Z,0.57
2022-08-10T15:21:02.939Z,0.52
2022-08-10T15:24:04.880Z,0.52
2022-08-10T15:26:37.476Z,0.88
2022-08-10T15:29:23.542Z,0.80
2022-08-10T15:32:19.848Z,0.65
2022-08-10T15:35:06.909Z,0.65
2022-08-10T15:37:56.264Z,0.90
2022-08-10T15:40:31.365Z,0.63
2022-08-10T15:43:24.421Z,2.33
2022-08-10T15:46:00.067Z,1.42
2022-08-10T15:48:34.644Z,0.60
2022-08-10T15:51:54.123Z,1.00
2022-08-10T15:57:19.245Z,0.70
2022-08-10T15:59:53.530Z,1.50
2022-08-10T16:02:53.970Z,0.90
2022-08-10T16:06:00.591Z,0.98
2022-08-10T16:08:17.848Z,0.60
2022-08-10T16:11:16.918Z,0.47
2022-08-10T16:14:00.600Z,0.57
2022-08-10T16:16:36.147Z,0.95
2022-08-10T16:19:25.024Z,0.63
2022-08-10T16:22:34.348Z,0.40
2022-08-10T16:24:59.358Z,1.02
2022-08-10T16:27:34.488Z,0.70
2022-08-10T16:30:08.105Z,0.50
2022-08-10T16:32:38.141Z,1.02
2022-08-10T16:35:08.168Z,0.80
2022-08-10T16:37:56.641Z,0.50
2022-08-10T16:40:29.256Z,0.55
2022-08-10T16:43:01.160Z,0.70
2022-08-10T16:45:35.734Z,0.80
2022-08-10T16:48:09.622Z,0.60
2022-08-10T16:50:45.358Z,0.40
2022-08-10T16:53:16.182Z,0.73
2022-08-10T16:55:52.494Z,0.88
2022-08-10T16:58:34.901Z,1.13
2022-08-10T17:01:07.446Z,0.80
2022-08-10T17:04:07.650Z,0.73
2022-08-10T17:06:40.432Z,0.40
2022-08-10T17:09:20.726Z,0.70
2022-08-10T17:12:10.551Z,0.73
2022-08-10T17:17:15.682Z,0.50
2022-08-10T17:19:55.627Z,0.50
2022-08-10T17:25:46.003Z,0.60
2022-08-10T17:28:35.413Z,0.50
2022-08-10T17:31:24.087Z,0.63
2022-08-10T17:34:02.681Z,0.75
2022-08-10T17:37:05.480Z,0.73
2022-08-10T17:39:43.150Z,0.70
2022-08-10T17:42:22.401Z,0.35
2022-08-10T17:44:53.979Z,0.70
2022-08-10T17:47:27.457Z,0.52
2022-08-10T17:50:09.531Z,0.70
2022-08-10T17:52:37.846Z,0.70
2022-08-10T17:55:08.701Z,0.43
2022-08-10T17:57:39.071Z,0.80
2022-08-10T18:00:13.551Z,0.70
2022-08-10T18:03:00.267Z,0.60
2022-08-10T18:05:33.453Z,1.02
2022-08-10T18:08:04.482Z,1.60
2022-08-10T18:10:33.524Z,0.82
2022-08-10T18:13:06.609Z,0.70
2022-08-10T18:15:39.328Z,0.80
2022-08-10T18:18:13.567Z,0.50
2022-08-10T18:20:55.269Z,0.68
2022-08-10T18:23:27.304Z,0.57
2022-08-10T18:26:09.058Z,0.38
2022-08-10T18:31:46.371Z,0.68
2022-08-10T18:36:48.896Z,0.57
2022-08-10T18:39:23.010Z,1.38
2022-08-10T18:42:05.025Z,0.63
2022-08-10T18:44:39.118Z,0.60
2022-08-10T18:47:14.070Z,1.08
2022-08-10T18:50:02.451Z,0.60
2022-08-10T18:52:43.090Z,0.40
2022-08-10T18:55:26.874Z,0.70
2022-08-10T18:58:28.039Z,0.40
2022-08-10T19:01:50.688Z,0.77
2022-08-10T19:04:54.439Z,0.70
2022-08-10T19:07:55.325Z,0.52
2022-08-10T19:10:37.731Z,0.75
2022-08-10T19:13:15.209Z,0.47
2022-08-10T19:15:53.806Z,0.57
2022-08-10T19:18:32.853Z,0.73
2022-08-10T19:21:14.483Z,0.35
2022-08-10T19:24:01.546Z,0.38
2022-08-10T19:26:44.106Z,0.40
2022-08-10T19:30:08.712Z,0.60
2022-08-10T19:32:30.594Z,0.70
2022-08-10T19:35:05.410Z,0.70
2022-08-10T19:37:42.591Z,0.77
2022-08-10T19:40:43.529Z,0.57
2022-08-10T19:43:30.594Z,0.50
2022-08-10T19:46:19.039Z,0.50
2022-08-10T19:48:56.436Z,0.70
2022-08-10T19:51:52.895Z,0.52
2022-08-10T19:54:32.446Z,0.63
2022-08-10T20:00:55.858Z,1.15
2022-08-10T20:03:27.947Z,0.77
2022-08-10T20:06:20.634Z,0.68
2022-08-10T20:08:56.853Z,0.30
2022-08-10T20:11:46.059Z,0.50
2022-08-10T20:14:21.264Z,0.77
2022-08-10T20:16:56.624Z,0.50
2022-08-10T20:19:53.995Z,0.50
2022-08-10T20:22:29.285Z,0.73
2022-08-10T20:25:02.223Z,0.70
2022-08-10T20:28:01.968Z,0.93
2022-08-10T20:30:34.225Z,0.50
2022-08-10T20:33:11.283Z,1.40
2022-08-10T20:35:49.815Z,0.75
2022-08-10T20:38:27.241Z,0.93
2022-08-10T20:41:04.388Z,0.60
2022-08-10T20:43:53.230Z,1.00
2022-08-10T20:46:29.721Z,0.45
2022-08-10T20:49:02.788Z,0.70
2022-08-10T20:51:58.848Z,1.33
2022-08-10T20:54:32.883Z,0.70
2022-08-10T20:57:55.608Z,0.80
2022-08-10T21:00:48.464Z,0.68
2022-08-10T21:03:43.940Z,1.00
2022-08-10T21:06:57.945Z,0.57
2022-08-10T21:09:50.297Z,0.57
2022-08-10T21:12:49.997Z,0.70
2022-08-10T21:15:29.520Z,0.60
2022-08-10T21:18:20.728Z,0.60
2022-08-10T21:20:59.385Z,0.93
2022-08-10T21:23:33.142Z,0.77
2022-08-10T21:26:10.408Z,0.68
2022-08-10T21:29:01.459Z,1.08
2022-08-10T21:32:02.439Z,0.70
2022-08-10T21:34:46.219Z,0.80
2022-08-10T21:37:39.784Z,0.88
2022-08-10T21:40:36.063Z,0.90
2022-08-10T21:43:44.795Z,1.10
2022-08-10T21:46:55.323Z,0.88
2022-08-10T21:50:07.173Z,1.10
2022-08-10T21:53:03.807Z,1.00
2022-08-10T21:56:01.818Z,1.45
2022-08-10T21:59:08.310Z,0.90
2022-08-10T22:02:02.921Z,1.63
2022-08-10T22:04:52.905Z,0.90
2022-08-10T22:07:40.624Z,1.23
2022-08-10T22:10:30.474Z,1.60
2022-08-10T22:13:21.646Z,1.45
2022-08-10T22:16:12.421Z,1.25
2022-08-10T22:19:03.725Z,1.30
2022-08-10T22:22:26.942Z,1.30
2022-08-10T22:25:29.838Z,1.50
2022-08-10T22:28:17.536Z,1.10
2022-08-10T22:34:47.419Z,1.17
2022-08-10T22:37:45.598Z,1.20
2022-08-10T22:40:36.921Z,1.08
2022-08-10T22:43:36.370Z,1.55
2022-08-10T22:46:32.899Z,1.70
2022-08-10T22:49:00.109Z,1.33
2022-08-10T22:51:51.049Z,1.20
2022-08-10T22:54:41.915Z,1.60
2022-08-10T23:00:20.382Z,1.85
2022-08-10T23:03:08.089Z,1.23
2022-08-10T23:05:40.440Z,1.50
2022-08-10T23:08:29.592Z,1.02
2022-08-10T23:11:04.260Z,2.30
2022-08-10T23:13:36.137Z,1.38
2022-08-10T23:16:26.809Z,1.58
2022-08-10T23:19:10.861Z,1.75
2022-08-10T23:22:03.296Z,1.17
2022-08-10T23:24:39.233Z,1.83
2022-08-10T23:27:12.977Z,1.70
2022-08-10T23:30:09.681Z,1.67
2022-08-10T23:32:42.321Z,1.27
2022-08-10T23:36:28.132Z,1.45
2022-08-10T23:38:06.123Z,1.33
2022-08-10T23:40:36.581Z,1.63
2022-08-10T23:43:06.642Z,1.48
2022-08-10T23:45:52.633Z,1.60
2022-08-10T23:48:25.606Z,1.80
2022-08-10T23:50:59.824Z,1.65
2022-08-10T23:53:31.438Z,1.48
2022-08-10T23:56:07.986Z,1.83
2022-08-10T23:58:43.255Z,1.55
